DAL1223 KLGA-KFLL
Flight info
| Callsign | DAL1223 |
|---|---|
| Flight time | N/A |
| Altitude | 32000 |
| Route | WHITE Q409 CRPLR KOOKI Q161 CHIEZ Y291 MAJIK CUUDA3 |
| Aircraft | A321/M-SDE3FGHIRWY/LB1 |
Departure
| Time | N/A |
|---|---|
| Airport | LaGuardia Airport (KLGA) |
Arrival
| Time | 2026-05-04 03:57 |
|---|---|
| Airport | Fort Lauderdale Hollywood International Airport (KFLL) |
| Time | Latitude | Longitude | Altitude | Speed | Heading |
|---|---|---|---|---|---|
| 2026-05-04 01:35 | 39.80047 | -74.45365 | 22397 ft | 423 kts | 231° |
| 2026-05-04 01:35 | 39.77982 | -74.48110 | 22776 ft | 424 kts | 231° |
| 2026-05-04 01:35 | 39.75919 | -74.50859 | 23171 ft | 426 kts | 231° |
| 2026-05-04 01:36 | 39.73874 | -74.53584 | 23533 ft | 427 kts | 231° |
| 2026-05-04 01:36 | 39.71791 | -74.56350 | 23870 ft | 429 kts | 231° |
| 2026-05-04 01:36 | 39.69703 | -74.59119 | 24191 ft | 430 kts | 231° |
| 2026-05-04 01:36 | 39.67604 | -74.61898 | 24495 ft | 432 kts | 231° |
| 2026-05-04 01:37 | 39.65500 | -74.64682 | 24789 ft | 433 kts | 231° |
| 2026-05-04 01:37 | 39.63389 | -74.67467 | 25170 ft | 431 kts | 232° |
| 2026-05-04 01:37 | 39.61286 | -74.70233 | 25586 ft | 430 kts | 232° |
| 2026-05-04 01:37 | 39.59190 | -74.72987 | 25983 ft | 428 kts | 232° |
| 2026-05-04 01:38 | 39.57107 | -74.75728 | 26402 ft | 426 kts | 232° |
| 2026-05-04 01:38 | 39.55035 | -74.78460 | 26811 ft | 424 kts | 232° |
| 2026-05-04 01:38 | 39.52994 | -74.81147 | 27209 ft | 423 kts | 232° |
| 2026-05-04 01:38 | 39.50931 | -74.83858 | 27604 ft | 422 kts | 232° |
| 2026-05-04 01:39 | 39.48874 | -74.86554 | 28000 ft | 420 kts | 232° |
| 2026-05-04 01:39 | 39.46822 | -74.89234 | 28386 ft | 418 kts | 232° |
| 2026-05-04 01:39 | 39.44780 | -74.91896 | 28826 ft | 415 kts | 233° |
| 2026-05-04 01:39 | 39.42752 | -74.94543 | 29242 ft | 413 kts | 233° |
| 2026-05-04 01:40 | 39.40733 | -74.97184 | 29630 ft | 412 kts | 233° |
| 2026-05-04 01:40 | 39.38727 | -74.99808 | 30023 ft | 410 kts | 233° |
| 2026-05-04 01:40 | 39.36723 | -75.02423 | 30375 ft | 409 kts | 233° |
| 2026-05-04 01:40 | 39.34724 | -75.05032 | 30703 ft | 407 kts | 233° |
| 2026-05-04 01:41 | 39.32735 | -75.07620 | 31007 ft | 406 kts | 233° |
| 2026-05-04 01:41 | 39.30747 | -75.10207 | 31314 ft | 405 kts | 233° |
| 2026-05-04 01:41 | 39.28768 | -75.12726 | 31569 ft | 405 kts | 231° |
| 2026-05-04 01:41 | 39.26717 | -75.15191 | 31947 ft | 402 kts | 230° |
| 2026-05-04 01:42 | 39.24645 | -75.17593 | 32031 ft | 399 kts | 229° |
| 2026-05-04 01:42 | 39.20497 | -75.22326 | 32035 ft | 397 kts | 229° |
| 2026-05-04 01:43 | 39.16388 | -75.27069 | 32035 ft | 396 kts | 230° |
| 2026-05-04 01:43 | 39.12311 | -75.31839 | 32037 ft | 396 kts | 230° |
| 2026-05-04 01:44 | 39.08262 | -75.36574 | 32028 ft | 394 kts | 230° |
| 2026-05-04 01:44 | 39.04116 | -75.41215 | 32037 ft | 400 kts | 224° |
| 2026-05-04 01:44 | 39.01687 | -75.43050 | 32033 ft | 412 kts | 214° |
| 2026-05-04 01:45 | 38.98952 | -75.44317 | 32032 ft | 426 kts | 204° |
| 2026-05-04 01:45 | 38.95983 | -75.44933 | 32028 ft | 437 kts | 196° |
| 2026-05-04 01:45 | 38.89954 | -75.45733 | 32046 ft | 437 kts | 197° |
| 2026-05-04 01:46 | 38.83942 | -75.46565 | 32057 ft | 438 kts | 197° |
| 2026-05-04 01:46 | 38.77889 | -75.47419 | 32071 ft | 438 kts | 197° |
| 2026-05-04 01:47 | 38.71835 | -75.48254 | 32077 ft | 437 kts | 197° |
| 2026-05-04 01:47 | 38.65789 | -75.49069 | 32029 ft | 437 kts | 197° |
| 2026-05-04 01:48 | 38.59788 | -75.49873 | 32044 ft | 436 kts | 197° |
| 2026-05-04 01:48 | 38.53753 | -75.50693 | 32056 ft | 436 kts | 197° |
| 2026-05-04 01:49 | 38.47722 | -75.51520 | 32077 ft | 436 kts | 197° |
| 2026-05-04 01:49 | 38.42709 | -75.52205 | 32059 ft | 435 kts | 197° |
| 2026-05-04 01:50 | 38.36727 | -75.53175 | 32076 ft | 426 kts | 204° |
| 2026-05-04 01:50 | 38.33069 | -75.54673 | 32087 ft | 410 kts | 214° |
| 2026-05-04 01:50 | 38.30572 | -75.56317 | 32077 ft | 399 kts | 221° |
| 2026-05-04 01:51 | 38.26021 | -75.60269 | 32076 ft | 396 kts | 224° |
| 2026-05-04 01:51 | 38.22243 | -75.63563 | 32038 ft | 396 kts | 223° |
| 2026-05-04 01:52 | 38.17693 | -75.67508 | 32049 ft | 396 kts | 223° |
| 2026-05-04 01:52 | 38.12409 | -75.72094 | 32060 ft | 396 kts | 223° |
| 2026-05-04 01:53 | 38.08627 | -75.75372 | 32063 ft | 396 kts | 223° |
| 2026-05-04 01:53 | 38.04082 | -75.79312 | 32071 ft | 396 kts | 223° |
| 2026-05-04 01:54 | 37.99528 | -75.83251 | 32080 ft | 398 kts | 223° |
| 2026-05-04 01:54 | 37.94948 | -75.87203 | 32086 ft | 398 kts | 223° |
| 2026-05-04 01:55 | 37.90366 | -75.91142 | 32093 ft | 398 kts | 223° |
| 2026-05-04 01:55 | 37.85822 | -75.95055 | 32094 ft | 398 kts | 223° |
| 2026-05-04 01:56 | 37.81247 | -75.98986 | 32065 ft | 398 kts | 223° |
| 2026-05-04 01:56 | 37.76664 | -76.02928 | 32070 ft | 398 kts | 223° |
| 2026-05-04 01:57 | 37.72076 | -76.06862 | 32080 ft | 399 kts | 223° |
| 2026-05-04 01:57 | 37.67516 | -76.10758 | 32084 ft | 399 kts | 222° |
| 2026-05-04 01:58 | 37.62916 | -76.14674 | 32089 ft | 399 kts | 221° |
| 2026-05-04 01:58 | 37.60450 | -76.16379 | 32088 ft | 410 kts | 213° |
| 2026-05-04 01:58 | 37.57729 | -76.17575 | 32088 ft | 421 kts | 204° |
| 2026-05-04 01:59 | 37.52032 | -76.19376 | 32092 ft | 422 kts | 204° |
| 2026-05-04 01:59 | 37.46326 | -76.21184 | 32099 ft | 423 kts | 204° |
| 2026-05-04 02:00 | 37.39703 | -76.23303 | 32088 ft | 423 kts | 204° |
| 2026-05-04 02:00 | 37.34966 | -76.24818 | 32082 ft | 423 kts | 204° |
| 2026-05-04 02:01 | 37.29252 | -76.26636 | 32094 ft | 424 kts | 204° |
| 2026-05-04 02:01 | 37.23537 | -76.28447 | 32109 ft | 424 kts | 204° |
| 2026-05-04 02:02 | 37.17858 | -76.30249 | 32114 ft | 424 kts | 204° |
| 2026-05-04 02:02 | 37.12145 | -76.32061 | 32094 ft | 424 kts | 204° |
| 2026-05-04 02:03 | 37.06427 | -76.33869 | 32107 ft | 424 kts | 204° |
| 2026-05-04 02:03 | 37.00704 | -76.35668 | 32117 ft | 424 kts | 204° |
| 2026-05-04 02:04 | 36.94993 | -76.37469 | 32109 ft | 423 kts | 204° |
| 2026-05-04 02:04 | 36.89320 | -76.39264 | 32070 ft | 423 kts | 203° |
| 2026-05-04 02:05 | 36.83604 | -76.41062 | 32120 ft | 423 kts | 203° |
| 2026-05-04 02:05 | 36.77895 | -76.42849 | 32130 ft | 423 kts | 203° |
| 2026-05-04 02:06 | 36.72182 | -76.44633 | 32138 ft | 423 kts | 203° |
| 2026-05-04 02:06 | 36.66505 | -76.46407 | 32108 ft | 423 kts | 203° |
| 2026-05-04 02:07 | 36.60797 | -76.48193 | 32117 ft | 423 kts | 203° |
| 2026-05-04 02:07 | 36.55087 | -76.49977 | 32091 ft | 423 kts | 203° |
| 2026-05-04 02:08 | 36.49372 | -76.51752 | 32105 ft | 423 kts | 203° |
| 2026-05-04 02:08 | 36.43695 | -76.53519 | 32094 ft | 424 kts | 202° |
| 2026-05-04 02:09 | 36.37972 | -76.55294 | 32107 ft | 424 kts | 202° |
| 2026-05-04 02:09 | 36.32251 | -76.57071 | 32117 ft | 424 kts | 202° |
| 2026-05-04 02:10 | 36.26530 | -76.58842 | 32128 ft | 424 kts | 202° |
| 2026-05-04 02:10 | 36.20846 | -76.60598 | 32109 ft | 423 kts | 202° |
| 2026-05-04 02:11 | 36.15128 | -76.62361 | 32134 ft | 423 kts | 202° |
| 2026-05-04 02:11 | 36.09411 | -76.64120 | 32146 ft | 423 kts | 202° |
| 2026-05-04 02:12 | 36.03693 | -76.65874 | 32149 ft | 423 kts | 202° |
| 2026-05-04 02:12 | 35.98016 | -76.67614 | 32125 ft | 422 kts | 202° |
| 2026-05-04 02:13 | 35.92326 | -76.69368 | 32133 ft | 420 kts | 203° |
| 2026-05-04 02:13 | 35.87041 | -76.72064 | 32139 ft | 409 kts | 213° |
| 2026-05-04 02:14 | 35.81952 | -76.75186 | 32124 ft | 409 kts | 213° |
| 2026-05-04 02:14 | 35.76855 | -76.78295 | 32090 ft | 408 kts | 213° |
| 2026-05-04 02:15 | 35.71809 | -76.81377 | 32102 ft | 408 kts | 213° |
| 2026-05-04 02:15 | 35.66717 | -76.84466 | 32112 ft | 408 kts | 213° |
| 2026-05-04 02:16 | 35.61631 | -76.87555 | 32154 ft | 408 kts | 213° |
| 2026-05-04 02:16 | 35.56544 | -76.90644 | 32148 ft | 408 kts | 213° |
| 2026-05-04 02:17 | 35.51495 | -76.93730 | 32116 ft | 408 kts | 213° |
| 2026-05-04 02:17 | 35.46428 | -76.96846 | 32127 ft | 407 kts | 213° |
| 2026-05-04 02:18 | 35.41356 | -76.99965 | 32133 ft | 407 kts | 213° |
| 2026-05-04 02:18 | 35.36290 | -77.03067 | 32145 ft | 407 kts | 213° |
| 2026-05-04 02:19 | 35.31251 | -77.06135 | 32142 ft | 407 kts | 213° |
| 2026-05-04 02:19 | 35.26175 | -77.09216 | 32131 ft | 407 kts | 213° |
| 2026-05-04 02:20 | 35.21103 | -77.12306 | 32131 ft | 407 kts | 213° |
| 2026-05-04 02:20 | 35.16034 | -77.15393 | 32131 ft | 407 kts | 213° |
| 2026-05-04 02:21 | 35.10996 | -77.18452 | 32157 ft | 407 kts | 213° |
| 2026-05-04 02:21 | 35.05926 | -77.21528 | 32121 ft | 407 kts | 213° |
| 2026-05-04 02:22 | 35.00857 | -77.24589 | 32139 ft | 406 kts | 212° |
| 2026-05-04 02:22 | 34.95790 | -77.27658 | 32139 ft | 406 kts | 212° |
| 2026-05-04 02:23 | 34.90757 | -77.30700 | 32127 ft | 407 kts | 212° |
| 2026-05-04 02:23 | 34.85679 | -77.33755 | 32136 ft | 407 kts | 212° |
| 2026-05-04 02:24 | 34.80611 | -77.36798 | 32125 ft | 405 kts | 213° |
| 2026-05-04 02:24 | 34.75580 | -77.39824 | 32144 ft | 403 kts | 213° |
| 2026-05-04 02:25 | 34.70559 | -77.42847 | 32148 ft | 402 kts | 213° |
| 2026-05-04 02:25 | 34.65578 | -77.45836 | 32143 ft | 402 kts | 213° |
| 2026-05-04 02:26 | 34.60560 | -77.48836 | 32154 ft | 401 kts | 213° |
| 2026-05-04 02:26 | 34.55556 | -77.51813 | 32144 ft | 400 kts | 213° |
| 2026-05-04 02:27 | 34.50368 | -77.54354 | 32147 ft | 411 kts | 201° |
| 2026-05-04 02:27 | 34.44749 | -77.55628 | 32142 ft | 413 kts | 199° |
| 2026-05-04 02:28 | 34.39089 | -77.56868 | 32144 ft | 413 kts | 199° |
| 2026-05-04 02:28 | 34.33436 | -77.58110 | 32104 ft | 413 kts | 199° |
| 2026-05-04 02:29 | 34.27793 | -77.59360 | 32144 ft | 412 kts | 199° |
| 2026-05-04 02:29 | 34.22192 | -77.60598 | 32142 ft | 412 kts | 198° |
| 2026-05-04 02:30 | 34.16560 | -77.61836 | 32142 ft | 412 kts | 198° |
| 2026-05-04 02:30 | 34.10918 | -77.63069 | 32142 ft | 412 kts | 198° |
| 2026-05-04 02:31 | 34.05283 | -77.64301 | 32138 ft | 411 kts | 198° |
| 2026-05-04 02:31 | 33.99656 | -77.65537 | 32147 ft | 411 kts | 198° |
| 2026-05-04 02:32 | 33.94066 | -77.66757 | 32147 ft | 411 kts | 198° |
| 2026-05-04 02:32 | 33.88443 | -77.67989 | 32155 ft | 410 kts | 198° |
| 2026-05-04 02:33 | 33.82829 | -77.69217 | 32123 ft | 410 kts | 198° |
| 2026-05-04 02:33 | 33.77209 | -77.70444 | 32139 ft | 410 kts | 198° |
| 2026-05-04 02:34 | 33.71633 | -77.71652 | 32148 ft | 410 kts | 198° |
| 2026-05-04 02:34 | 33.66091 | -77.73105 | 32155 ft | 405 kts | 202° |
| 2026-05-04 02:35 | 33.60644 | -77.74889 | 32160 ft | 405 kts | 202° |
| 2026-05-04 02:35 | 33.55209 | -77.76671 | 32139 ft | 405 kts | 202° |
| 2026-05-04 02:36 | 33.49802 | -77.78436 | 32159 ft | 405 kts | 202° |
| 2026-05-04 02:36 | 33.44356 | -77.80213 | 32166 ft | 405 kts | 202° |
| 2026-05-04 02:37 | 33.38923 | -77.81989 | 32168 ft | 405 kts | 202° |
| 2026-05-04 02:37 | 33.33483 | -77.83757 | 32141 ft | 405 kts | 202° |
| 2026-05-04 02:38 | 33.28085 | -77.85505 | 32153 ft | 405 kts | 202° |
| 2026-05-04 02:38 | 33.22652 | -77.87268 | 32158 ft | 404 kts | 202° |
| 2026-05-04 02:39 | 33.17225 | -77.89028 | 32165 ft | 404 kts | 202° |
| 2026-05-04 02:39 | 33.11792 | -77.90782 | 32168 ft | 405 kts | 202° |
| 2026-05-04 02:40 | 33.06358 | -77.92531 | 32148 ft | 404 kts | 202° |
| 2026-05-04 02:40 | 33.00977 | -77.94300 | 32160 ft | 404 kts | 203° |
| 2026-05-04 02:41 | 32.95589 | -77.96162 | 32177 ft | 403 kts | 203° |
| 2026-05-04 02:41 | 32.90206 | -77.98033 | 32174 ft | 403 kts | 203° |
| 2026-05-04 02:42 | 32.84814 | -77.99887 | 32171 ft | 403 kts | 203° |
| 2026-05-04 02:42 | 32.79425 | -78.01723 | 32173 ft | 403 kts | 202° |
| 2026-05-04 02:43 | 32.74064 | -78.03542 | 32171 ft | 403 kts | 202° |
| 2026-05-04 02:43 | 32.68669 | -78.05370 | 32165 ft | 403 kts | 202° |
| 2026-05-04 02:44 | 32.63274 | -78.07205 | 32170 ft | 403 kts | 203° |
| 2026-05-04 02:44 | 32.57878 | -78.09038 | 32141 ft | 403 kts | 203° |
| 2026-05-04 02:45 | 32.52484 | -78.10872 | 32154 ft | 403 kts | 203° |
| 2026-05-04 02:45 | 32.47128 | -78.12687 | 32162 ft | 403 kts | 203° |
| 2026-05-04 02:46 | 32.41737 | -78.14505 | 32164 ft | 403 kts | 202° |
| 2026-05-04 02:46 | 32.36344 | -78.16315 | 32163 ft | 403 kts | 203° |
| 2026-05-04 02:47 | 32.30958 | -78.18135 | 32138 ft | 402 kts | 203° |
| 2026-05-04 02:47 | 32.25577 | -78.19950 | 32149 ft | 402 kts | 203° |
| 2026-05-04 02:48 | 32.20247 | -78.21747 | 32157 ft | 402 kts | 203° |
| 2026-05-04 02:48 | 32.14868 | -78.23554 | 32159 ft | 402 kts | 203° |
| 2026-05-04 02:49 | 32.09483 | -78.25364 | 32161 ft | 402 kts | 203° |
| 2026-05-04 02:49 | 32.04096 | -78.27175 | 32164 ft | 403 kts | 203° |
| 2026-05-04 02:50 | 31.98729 | -78.28973 | 32173 ft | 404 kts | 203° |
| 2026-05-04 02:50 | 31.93323 | -78.30775 | 32176 ft | 403 kts | 203° |
| 2026-05-04 02:51 | 31.87923 | -78.32576 | 32177 ft | 403 kts | 203° |
| 2026-05-04 02:51 | 31.82527 | -78.34380 | 32177 ft | 403 kts | 203° |
| 2026-05-04 02:52 | 31.77131 | -78.36178 | 32155 ft | 403 kts | 203° |
| 2026-05-04 02:52 | 31.71775 | -78.37960 | 32163 ft | 403 kts | 203° |
| 2026-05-04 02:53 | 31.66378 | -78.39751 | 32164 ft | 403 kts | 203° |
| 2026-05-04 02:53 | 31.60981 | -78.41541 | 32167 ft | 403 kts | 203° |
| 2026-05-04 02:54 | 31.55585 | -78.43332 | 32170 ft | 403 kts | 203° |
| 2026-05-04 02:54 | 31.50236 | -78.45097 | 32158 ft | 403 kts | 203° |
| 2026-05-04 02:55 | 31.42147 | -78.47712 | 32168 ft | 403 kts | 203° |
| 2026-05-04 02:56 | 31.36752 | -78.49461 | 32173 ft | 402 kts | 203° |
| 2026-05-04 02:56 | 31.31357 | -78.51212 | 32170 ft | 402 kts | 203° |
| 2026-05-04 02:57 | 31.26003 | -78.52954 | 32140 ft | 402 kts | 203° |
| 2026-05-04 02:57 | 31.20613 | -78.54689 | 32154 ft | 402 kts | 203° |
| 2026-05-04 02:58 | 31.15231 | -78.56430 | 32160 ft | 401 kts | 203° |
| 2026-05-04 02:58 | 31.09852 | -78.58167 | 32168 ft | 401 kts | 203° |
| 2026-05-04 02:59 | 31.04509 | -78.59878 | 32164 ft | 401 kts | 203° |
| 2026-05-04 02:59 | 30.99140 | -78.61601 | 32136 ft | 400 kts | 203° |
| 2026-05-04 03:00 | 30.93776 | -78.63327 | 32155 ft | 400 kts | 203° |
| 2026-05-04 03:00 | 30.88416 | -78.65044 | 32159 ft | 399 kts | 203° |
| 2026-05-04 03:01 | 30.83066 | -78.66761 | 32163 ft | 399 kts | 203° |
| 2026-05-04 03:01 | 30.77753 | -78.68469 | 32176 ft | 399 kts | 203° |
| 2026-05-04 03:02 | 30.72397 | -78.70179 | 32134 ft | 399 kts | 203° |
| 2026-05-04 03:02 | 30.67037 | -78.71892 | 32142 ft | 399 kts | 203° |
| 2026-05-04 03:03 | 30.61683 | -78.73602 | 32149 ft | 399 kts | 203° |
| 2026-05-04 03:03 | 30.56320 | -78.75302 | 32150 ft | 399 kts | 203° |
| 2026-05-04 03:04 | 30.50993 | -78.76991 | 32153 ft | 399 kts | 203° |
| 2026-05-04 03:04 | 30.45637 | -78.78706 | 32130 ft | 399 kts | 203° |
| 2026-05-04 03:05 | 30.40299 | -78.80402 | 32152 ft | 398 kts | 203° |
| 2026-05-04 03:05 | 30.34957 | -78.82098 | 32162 ft | 398 kts | 203° |
| 2026-05-04 03:06 | 30.29645 | -78.83772 | 32162 ft | 398 kts | 203° |
| 2026-05-04 03:06 | 30.24312 | -78.85454 | 32159 ft | 397 kts | 203° |
| 2026-05-04 03:07 | 30.18988 | -78.87144 | 32158 ft | 397 kts | 203° |
| 2026-05-04 03:07 | 30.13661 | -78.88835 | 32156 ft | 397 kts | 203° |
| 2026-05-04 03:08 | 30.08366 | -78.90512 | 32160 ft | 397 kts | 203° |
| 2026-05-04 03:08 | 30.03028 | -78.92187 | 32156 ft | 397 kts | 203° |
| 2026-05-04 03:09 | 29.97700 | -78.93862 | 32150 ft | 397 kts | 203° |
| 2026-05-04 03:09 | 29.92371 | -78.95542 | 32097 ft | 396 kts | 203° |
| 2026-05-04 03:10 | 29.87105 | -78.97203 | 32130 ft | 395 kts | 203° |
| 2026-05-04 03:10 | 29.81794 | -78.98867 | 32131 ft | 395 kts | 203° |
| 2026-05-04 03:11 | 29.76326 | -79.00014 | 32133 ft | 401 kts | 198° |
| 2026-05-04 03:11 | 29.70822 | -79.01022 | 32131 ft | 401 kts | 198° |
| 2026-05-04 03:12 | 29.65315 | -79.02041 | 32082 ft | 401 kts | 198° |
| 2026-05-04 03:12 | 29.59820 | -79.03055 | 32099 ft | 400 kts | 198° |
| 2026-05-04 03:13 | 29.54372 | -79.04059 | 32112 ft | 399 kts | 198° |
| 2026-05-04 03:13 | 29.48883 | -79.05066 | 32119 ft | 399 kts | 198° |
| 2026-05-04 03:14 | 29.43404 | -79.06074 | 32139 ft | 399 kts | 198° |
| 2026-05-04 03:14 | 29.37913 | -79.07085 | 32123 ft | 400 kts | 198° |
| 2026-05-04 03:15 | 29.32416 | -79.08102 | 32091 ft | 400 kts | 198° |
| 2026-05-04 03:15 | 29.26915 | -79.09112 | 32098 ft | 401 kts | 198° |
| 2026-05-04 03:16 | 29.21445 | -79.10113 | 32104 ft | 401 kts | 198° |
| 2026-05-04 03:16 | 29.15936 | -79.11117 | 32109 ft | 401 kts | 198° |
| 2026-05-04 03:17 | 29.10429 | -79.12122 | 32108 ft | 401 kts | 198° |
| 2026-05-04 03:17 | 29.04914 | -79.13139 | 32104 ft | 402 kts | 198° |
| 2026-05-04 03:18 | 28.99390 | -79.14156 | 32108 ft | 402 kts | 198° |
| 2026-05-04 03:18 | 28.93904 | -79.15144 | 32116 ft | 402 kts | 198° |
| 2026-05-04 03:19 | 28.88382 | -79.16137 | 32106 ft | 402 kts | 198° |
| 2026-05-04 03:19 | 28.82865 | -79.17135 | 32105 ft | 401 kts | 198° |
| 2026-05-04 03:20 | 28.77357 | -79.18142 | 32060 ft | 401 kts | 198° |
| 2026-05-04 03:20 | 28.71830 | -79.19152 | 32076 ft | 403 kts | 198° |
| 2026-05-04 03:21 | 28.66340 | -79.20150 | 32077 ft | 403 kts | 198° |
| 2026-05-04 03:21 | 28.60790 | -79.21154 | 32077 ft | 404 kts | 198° |
| 2026-05-04 03:22 | 28.55239 | -79.22155 | 32079 ft | 404 kts | 198° |
| 2026-05-04 03:22 | 28.49684 | -79.23161 | 32063 ft | 405 kts | 198° |
| 2026-05-04 03:23 | 28.44109 | -79.24163 | 32073 ft | 406 kts | 198° |
| 2026-05-04 03:23 | 28.38570 | -79.25154 | 32080 ft | 406 kts | 198° |
| 2026-05-04 03:24 | 28.32999 | -79.26167 | 32078 ft | 404 kts | 200° |
| 2026-05-04 03:24 | 28.27653 | -79.27835 | 32080 ft | 398 kts | 204° |
| 2026-05-04 03:25 | 28.22326 | -79.29562 | 32058 ft | 398 kts | 204° |
| 2026-05-04 03:25 | 28.17034 | -79.31264 | 32074 ft | 398 kts | 204° |
| 2026-05-04 03:26 | 28.11707 | -79.32985 | 32078 ft | 398 kts | 204° |
| 2026-05-04 03:26 | 28.06389 | -79.34712 | 32081 ft | 398 kts | 204° |
| 2026-05-04 03:27 | 28.01078 | -79.36432 | 32079 ft | 398 kts | 204° |
| 2026-05-04 03:27 | 27.95757 | -79.38156 | 32079 ft | 397 kts | 204° |
| 2026-05-04 03:28 | 27.90470 | -79.39869 | 32040 ft | 398 kts | 204° |
| 2026-05-04 03:28 | 27.85137 | -79.41591 | 32045 ft | 399 kts | 204° |
| 2026-05-04 03:29 | 27.79795 | -79.43310 | 32061 ft | 400 kts | 204° |
| 2026-05-04 03:29 | 27.74446 | -79.45027 | 32053 ft | 401 kts | 204° |
| 2026-05-04 03:30 | 27.69070 | -79.46759 | 32053 ft | 402 kts | 204° |
| 2026-05-04 03:30 | 27.63684 | -79.48491 | 32048 ft | 404 kts | 204° |
| 2026-05-04 03:31 | 27.58291 | -79.50222 | 31831 ft | 405 kts | 204° |
| 2026-05-04 03:31 | 27.55556 | -79.51103 | 30811 ft | 413 kts | 203° |
| 2026-05-04 03:31 | 27.52774 | -79.51999 | 29800 ft | 419 kts | 203° |
| 2026-05-04 03:31 | 27.49952 | -79.52901 | 28838 ft | 422 kts | 203° |
| 2026-05-04 03:32 | 27.47127 | -79.53799 | 28109 ft | 420 kts | 202° |
| 2026-05-04 03:32 | 27.44362 | -79.54668 | 27967 ft | 405 kts | 203° |
| 2026-05-04 03:32 | 27.41699 | -79.55503 | 27789 ft | 391 kts | 203° |
| 2026-05-04 03:32 | 27.39116 | -79.56316 | 27532 ft | 381 kts | 203° |
| 2026-05-04 03:33 | 27.36591 | -79.57115 | 27245 ft | 377 kts | 203° |
| 2026-05-04 03:33 | 27.34076 | -79.57916 | 26784 ft | 374 kts | 203° |
| 2026-05-04 03:33 | 27.31618 | -79.58699 | 26307 ft | 370 kts | 203° |
| 2026-05-04 03:33 | 27.29152 | -79.59483 | 25833 ft | 368 kts | 203° |
| 2026-05-04 03:34 | 27.26693 | -79.60262 | 25365 ft | 365 kts | 203° |
| 2026-05-04 03:34 | 27.24259 | -79.61032 | 24899 ft | 363 kts | 203° |
| 2026-05-04 03:34 | 27.21835 | -79.61795 | 24436 ft | 361 kts | 202° |
| 2026-05-04 03:34 | 27.19422 | -79.62550 | 23974 ft | 358 kts | 202° |
| 2026-05-04 03:35 | 27.17029 | -79.63302 | 23497 ft | 356 kts | 202° |
| 2026-05-04 03:35 | 27.14658 | -79.64057 | 23003 ft | 354 kts | 202° |
| 2026-05-04 03:35 | 27.12329 | -79.64804 | 22558 ft | 352 kts | 202° |
| 2026-05-04 03:35 | 27.09978 | -79.65561 | 22106 ft | 350 kts | 202° |
| 2026-05-04 03:36 | 27.07636 | -79.66315 | 21640 ft | 352 kts | 202° |
| 2026-05-04 03:36 | 27.05280 | -79.67074 | 21206 ft | 352 kts | 202° |
| 2026-05-04 03:36 | 27.02922 | -79.67830 | 20753 ft | 351 kts | 202° |
| 2026-05-04 03:36 | 27.00578 | -79.68578 | 20304 ft | 350 kts | 202° |
| 2026-05-04 03:37 | 26.98245 | -79.69320 | 19857 ft | 348 kts | 202° |
| 2026-05-04 03:37 | 26.95916 | -79.70061 | 19412 ft | 347 kts | 202° |
| 2026-05-04 03:37 | 26.93601 | -79.70800 | 18969 ft | 345 kts | 201° |
| 2026-05-04 03:37 | 26.91332 | -79.71522 | 18642 ft | 340 kts | 201° |
| 2026-05-04 03:38 | 26.89081 | -79.72236 | 18300 ft | 335 kts | 201° |
| 2026-05-04 03:38 | 26.86842 | -79.72949 | 17793 ft | 334 kts | 201° |
| 2026-05-04 03:38 | 26.84615 | -79.73660 | 17311 ft | 332 kts | 201° |
| 2026-05-04 03:38 | 26.82398 | -79.74368 | 16789 ft | 331 kts | 201° |
| 2026-05-04 03:39 | 26.80190 | -79.75072 | 16329 ft | 330 kts | 201° |
| 2026-05-04 03:39 | 26.77987 | -79.75772 | 15882 ft | 328 kts | 201° |
| 2026-05-04 03:39 | 26.75801 | -79.76462 | 15466 ft | 326 kts | 201° |
| 2026-05-04 03:39 | 26.73627 | -79.77144 | 15051 ft | 324 kts | 200° |
| 2026-05-04 03:40 | 26.71488 | -79.77816 | 14650 ft | 322 kts | 200° |
| 2026-05-04 03:40 | 26.69365 | -79.78503 | 14243 ft | 320 kts | 202° |
| 2026-05-04 03:40 | 26.67262 | -79.79291 | 13827 ft | 318 kts | 204° |
| 2026-05-04 03:40 | 26.65195 | -79.80137 | 13518 ft | 312 kts | 205° |
| 2026-05-04 03:41 | 26.63198 | -79.80980 | 13263 ft | 304 kts | 205° |
| 2026-05-04 03:41 | 26.61222 | -79.81820 | 12847 ft | 303 kts | 205° |
| 2026-05-04 03:41 | 26.59254 | -79.82650 | 12430 ft | 302 kts | 205° |
| 2026-05-04 03:41 | 26.57289 | -79.83468 | 12017 ft | 301 kts | 205° |
| 2026-05-04 03:42 | 26.55421 | -79.84237 | 11631 ft | 300 kts | 205° |
| 2026-05-04 03:42 | 26.53503 | -79.85075 | 11412 ft | 291 kts | 206° |
| 2026-05-04 03:42 | 26.51646 | -79.85940 | 11119 ft | 287 kts | 207° |
| 2026-05-04 03:42 | 26.49834 | -79.86808 | 10572 ft | 281 kts | 207° |
| 2026-05-04 03:43 | 26.48052 | -79.87666 | 10016 ft | 283 kts | 207° |
| 2026-05-04 03:43 | 26.46249 | -79.88532 | 9626 ft | 282 kts | 207° |
| 2026-05-04 03:43 | 26.44449 | -79.89390 | 9239 ft | 280 kts | 206° |
| 2026-05-04 03:43 | 26.42660 | -79.90235 | 8879 ft | 278 kts | 206° |
| 2026-05-04 03:44 | 26.40887 | -79.91069 | 8523 ft | 275 kts | 206° |
| 2026-05-04 03:44 | 26.39129 | -79.91894 | 8174 ft | 273 kts | 206° |
| 2026-05-04 03:44 | 26.37443 | -79.92836 | 7899 ft | 270 kts | 213° |
| 2026-05-04 03:44 | 26.35826 | -79.93878 | 7829 ft | 270 kts | 213° |
| 2026-05-04 03:45 | 26.34200 | -79.94924 | 7775 ft | 270 kts | 213° |
| 2026-05-04 03:45 | 26.32574 | -79.95970 | 7711 ft | 270 kts | 213° |
| 2026-05-04 03:45 | 26.30949 | -79.97013 | 7637 ft | 269 kts | 212° |
| 2026-05-04 03:45 | 26.29344 | -79.98041 | 7340 ft | 269 kts | 212° |
| 2026-05-04 03:46 | 26.27730 | -79.99075 | 7189 ft | 268 kts | 212° |
| 2026-05-04 03:46 | 26.26117 | -80.00109 | 7054 ft | 268 kts | 212° |
| 2026-05-04 03:46 | 26.24501 | -80.01145 | 6935 ft | 268 kts | 212° |
| 2026-05-04 03:46 | 26.22887 | -80.02179 | 6821 ft | 268 kts | 212° |
| 2026-05-04 03:47 | 26.21276 | -80.03212 | 6690 ft | 267 kts | 212° |
| 2026-05-04 03:47 | 26.19691 | -80.04272 | 6570 ft | 264 kts | 218° |
| 2026-05-04 03:47 | 26.18369 | -80.05664 | 6458 ft | 261 kts | 233° |
| 2026-05-04 03:47 | 26.17436 | -80.07387 | 6321 ft | 260 kts | 247° |
| 2026-05-04 03:48 | 26.16846 | -80.09266 | 6211 ft | 261 kts | 251° |
| 2026-05-04 03:48 | 26.16270 | -80.11178 | 6085 ft | 261 kts | 251° |
| 2026-05-04 03:48 | 26.15691 | -80.13091 | 5961 ft | 260 kts | 251° |
| 2026-05-04 03:48 | 26.15157 | -80.15015 | 5835 ft | 260 kts | 258° |
| 2026-05-04 03:49 | 26.15014 | -80.17017 | 5714 ft | 261 kts | 270° |
| 2026-05-04 03:49 | 26.15033 | -80.19034 | 5593 ft | 261 kts | 269° |
| 2026-05-04 03:49 | 26.15046 | -80.21054 | 5470 ft | 260 kts | 269° |
| 2026-05-04 03:49 | 26.15053 | -80.23039 | 5350 ft | 260 kts | 269° |
| 2026-05-04 03:50 | 26.15059 | -80.25019 | 5219 ft | 251 kts | 269° |
| 2026-05-04 03:50 | 26.15064 | -80.26984 | 4935 ft | 258 kts | 269° |
| 2026-05-04 03:50 | 26.15070 | -80.28995 | 4440 ft | 261 kts | 270° |
| 2026-05-04 03:50 | 26.15077 | -80.31031 | 3926 ft | 265 kts | 270° |
| 2026-05-04 03:51 | 26.15087 | -80.33065 | 3650 ft | 258 kts | 270° |
| 2026-05-04 03:51 | 26.15096 | -80.35020 | 3514 ft | 247 kts | 269° |
| 2026-05-04 03:51 | 26.14762 | -80.36827 | 3399 ft | 235 kts | 242° |
| 2026-05-04 03:51 | 26.13697 | -80.38081 | 3297 ft | 221 kts | 210° |
| 2026-05-04 03:52 | 26.12285 | -80.38566 | 3145 ft | 212 kts | 191° |
| 2026-05-04 03:52 | 26.10820 | -80.38488 | 3048 ft | 214 kts | 169° |
| 2026-05-04 03:52 | 26.09418 | -80.37971 | 2838 ft | 213 kts | 152° |
| 2026-05-04 03:52 | 26.08327 | -80.36872 | 2527 ft | 215 kts | 124° |
| 2026-05-04 03:53 | 26.07803 | -80.35333 | 2221 ft | 215 kts | 96° |
| 2026-05-04 03:53 | 26.07776 | -80.33688 | 2129 ft | 213 kts | 90° |
| 2026-05-04 03:53 | 26.07771 | -80.32121 | 2090 ft | 196 kts | 90° |
| 2026-05-04 03:53 | 26.07764 | -80.30652 | 2034 ft | 178 kts | 90° |
| 2026-05-04 03:54 | 26.07758 | -80.29309 | 2003 ft | 170 kts | 90° |
| 2026-05-04 03:54 | 26.07752 | -80.28003 | 1941 ft | 168 kts | 90° |
| 2026-05-04 03:54 | 26.07746 | -80.26734 | 1780 ft | 165 kts | 90° |
| 2026-05-04 03:54 | 26.07740 | -80.25497 | 1606 ft | 156 kts | 90° |
| 2026-05-04 03:55 | 26.07734 | -80.24323 | 1396 ft | 152 kts | 90° |
| 2026-05-04 03:55 | 26.07728 | -80.23159 | 1188 ft | 150 kts | 89° |
| 2026-05-04 03:55 | 26.07723 | -80.22016 | 986 ft | 148 kts | 89° |
| 2026-05-04 03:55 | 26.07717 | -80.20868 | 812 ft | 148 kts | 89° |
| 2026-05-04 03:56 | 26.07714 | -80.19725 | 631 ft | 148 kts | 89° |
| 2026-05-04 03:56 | 26.07707 | -80.18586 | 428 ft | 146 kts | 89° |
| 2026-05-04 03:56 | 26.07700 | -80.17470 | 245 ft | 145 kts | 89° |
| 2026-05-04 03:56 | 26.07693 | -80.16345 | 47 ft | 145 kts | 88° |
| 2026-05-04 03:57 | 26.07688 | -80.15336 | 18 ft | 102 kts | 91° |
| 2026-05-04 03:57 | 26.07685 | -80.14878 | 23 ft | 28 kts | 91° |
| 2026-05-04 03:57 | 26.07668 | -80.14730 | 25 ft | 16 kts | 103° |
| 2026-05-04 03:57 | 26.07636 | -80.14613 | 24 ft | 15 kts | 113° |
| 2026-05-04 03:58 | 26.07560 | -80.14421 | 29 ft | 13 kts | 95° |
| 2026-05-04 03:58 | 26.07557 | -80.14326 | 25 ft | 12 kts | 90° |
| 2026-05-04 03:58 | 26.07548 | -80.14235 | 26 ft | 12 kts | 122° |
| 2026-05-04 03:59 | 26.07487 | -80.14231 | 24 ft | 6 kts | 247° |
| 2026-05-04 03:59 | 26.07488 | -80.14280 | 24 ft | 6 kts | 270° |
| 2026-05-04 03:59 | 26.07484 | -80.14329 | 23 ft | 7 kts | 252° |
| 2026-05-04 03:59 | 26.07450 | -80.14343 | 23 ft | 5 kts | 185° |
| 2026-05-04 04:00 | 26.07415 | -80.14343 | 23 ft | 5 kts | 180° |
| 2026-05-04 04:00 | 26.07402 | -80.14343 | 25 ft | 0 kts | 180° |